createdAt,value
2022-08-07T00:00:25.801Z,13.44
2022-08-07T00:02:53.787Z,13.49
2022-08-07T00:05:23.603Z,13.53
2022-08-07T00:07:58.332Z,13.51
2022-08-07T00:10:31.083Z,13.50
2022-08-07T00:13:09.596Z,13.48
2022-08-07T00:15:46.762Z,13.50
2022-08-07T00:18:24.043Z,13.55
2022-08-07T00:20:54.492Z,13.47
2022-08-07T00:23:22.109Z,13.46
2022-08-07T00:25:52.469Z,13.46
2022-08-07T00:28:33.393Z,13.36
2022-08-07T00:31:12.419Z,13.30
2022-08-07T00:33:41.017Z,13.27
2022-08-07T00:36:08.807Z,13.20
2022-08-07T00:38:38.989Z,13.23
2022-08-07T00:41:09.996Z,13.20
2022-08-07T00:44:01.959Z,13.13
2022-08-07T00:46:30.110Z,13.08
2022-08-07T00:49:02.078Z,13.15
2022-08-07T00:51:58.407Z,13.18
2022-08-07T00:54:19.626Z,13.17
2022-08-07T00:56:49.574Z,13.14
2022-08-07T00:59:20.246Z,13.18
2022-08-07T01:02:00.127Z,13.10
2022-08-07T01:04:30.284Z,13.04
2022-08-07T01:06:59.636Z,13.04
2022-08-07T01:10:04.474Z,13.01
2022-08-07T01:12:29.855Z,12.99
2022-08-07T01:15:00.967Z,13.00
2022-08-07T01:17:30.125Z,12.98
2022-08-07T01:20:05.317Z,12.96
2022-08-07T01:22:34.159Z,12.97
2022-08-07T01:25:20.775Z,12.92
2022-08-07T01:27:51.681Z,12.93
2022-08-07T01:30:19.096Z,12.89
2022-08-07T01:32:46.442Z,12.83
2022-08-07T01:35:17.189Z,12.84
2022-08-07T01:37:44.734Z,12.79
2022-08-07T01:40:15.466Z,12.73
2022-08-07T01:42:57.202Z,12.65
2022-08-07T01:45:36.964Z,12.49
2022-08-07T01:48:18.500Z,12.51
2022-08-07T01:50:58.975Z,12.46
2022-08-07T01:54:12.205Z,12.35
2022-08-07T01:56:32.764Z,12.34
2022-08-07T01:59:19.384Z,12.31
2022-08-07T02:02:01.929Z,12.33
2022-08-07T02:04:55.692Z,12.24
2022-08-07T02:07:35.842Z,12.18
2022-08-07T02:10:05.123Z,12.27
2022-08-07T02:12:37.775Z,12.24
2022-08-07T02:15:06.881Z,12.21
2022-08-07T02:17:36.236Z,12.11
2022-08-07T02:20:09.594Z,12.18
2022-08-07T02:22:44.710Z,12.12
2022-08-07T02:25:18.080Z,12.15
2022-08-07T02:27:52.238Z,12.15
2022-08-07T02:30:20.838Z,12.19
2022-08-07T02:33:03.928Z,12.18
2022-08-07T02:36:30.777Z,12.29
2022-08-07T02:38:35.135Z,12.22
2022-08-07T02:41:06.062Z,12.15
2022-08-07T02:43:38.882Z,12.10
2022-08-07T02:46:11.159Z,12.04
2022-08-07T02:48:38.523Z,12.03
2022-08-07T02:51:14.245Z,11.87
2022-08-07T02:54:01.767Z,11.80
2022-08-07T02:56:31.651Z,11.75
2022-08-07T02:59:02.514Z,11.70
2022-08-07T03:01:35.833Z,11.67
2022-08-07T03:04:12.620Z,11.67
2022-08-07T03:06:44.817Z,11.53
2022-08-07T03:09:13.985Z,11.41
2022-08-07T03:11:52.536Z,11.40
2022-08-07T03:14:29.715Z,11.32
2022-08-07T03:16:57.692Z,11.22
2022-08-07T03:19:29.113Z,11.10
2022-08-07T03:22:06.363Z,11.18
2022-08-07T03:24:34.545Z,11.23
2022-08-07T03:27:08.828Z,11.17
2022-08-07T03:29:50.479Z,11.08
2022-08-07T03:32:26.250Z,11.09
2022-08-07T03:35:01.034Z,11.10
2022-08-07T03:37:53.206Z,11.04
2022-08-07T03:40:22.170Z,11.04
2022-08-07T03:42:51.692Z,11.08
2022-08-07T03:45:30.414Z,10.94
2022-08-07T03:47:59.719Z,10.90
2022-08-07T03:50:29.080Z,10.81
2022-08-07T03:52:59.173Z,10.80
2022-08-07T03:55:52.918Z,10.84
2022-08-07T03:59:05.128Z,10.72
2022-08-07T04:01:11.297Z,10.86
2022-08-07T04:03:53.508Z,10.86
2022-08-07T04:06:37.050Z,10.78
2022-08-07T04:09:06.313Z,10.85
2022-08-07T04:12:24.513Z,10.88
2022-08-07T04:14:37.518Z,10.88
2022-08-07T04:17:20.565Z,10.93
2022-08-07T04:19:54.225Z,10.95
2022-08-07T04:22:28.873Z,10.97
2022-08-07T04:24:58.754Z,10.99
2022-08-07T04:27:28.969Z,11.11
2022-08-07T04:30:04.681Z,11.20
2022-08-07T04:32:37.911Z,11.23
2022-08-07T04:35:11.149Z,11.31
2022-08-07T04:37:52.682Z,11.34
2022-08-07T04:40:30.109Z,11.35
2022-08-07T04:43:01.369Z,11.43
2022-08-07T04:46:00.454Z,11.55
2022-08-07T04:48:57.317Z,11.73
2022-08-07T04:51:34.724Z,11.81
2022-08-07T04:54:32.102Z,11.85
2022-08-07T04:58:12.434Z,11.94
2022-08-07T05:00:53.202Z,12.01
2022-08-07T05:04:07.272Z,12.07
2022-08-07T05:07:19.571Z,12.21
2022-08-07T05:09:59.037Z,12.22
2022-08-07T05:12:38.027Z,12.14
2022-08-07T05:15:27.773Z,12.14
2022-08-07T05:18:00.838Z,12.21
2022-08-07T05:20:38.166Z,12.36
2022-08-07T05:23:31.992Z,12.41
2022-08-07T05:26:12.847Z,12.34
2022-08-07T05:28:48.614Z,12.33
2022-08-07T05:31:23.975Z,12.45
2022-08-07T05:34:05.534Z,12.60
2022-08-07T05:36:35.602Z,12.73
2022-08-07T05:40:05.237Z,12.81
2022-08-07T05:42:00.286Z,12.96
2022-08-07T05:44:31.247Z,13.03
2022-08-07T05:47:01.180Z,13.13
2022-08-07T05:49:40.445Z,13.33
2022-08-07T05:52:11.791Z,13.47
2022-08-07T05:54:53.157Z,13.56
2022-08-07T05:57:30.132Z,13.63
2022-08-07T06:00:02.113Z,13.70
2022-08-07T06:02:32.185Z,13.88
2022-08-07T06:05:15.391Z,14.04
2022-08-07T06:08:29.884Z,14.12
2022-08-07T06:10:31.990Z,14.29
2022-08-07T06:13:02.191Z,14.33
2022-08-07T06:15:39.439Z,14.46
2022-08-07T06:18:14.098Z,14.58
2022-08-07T06:20:50.994Z,14.67
2022-08-07T06:24:38.723Z,14.72
2022-08-07T06:26:20.341Z,14.93
2022-08-07T06:28:54.621Z,14.99
2022-08-07T06:31:24.278Z,15.13
2022-08-07T06:34:09.318Z,15.24
2022-08-07T06:36:36.901Z,15.33
2022-08-07T06:40:16.205Z,15.40
2022-08-07T06:42:03.576Z,15.57
2022-08-07T06:44:36.672Z,15.68
2022-08-07T06:47:11.930Z,15.82
2022-08-07T06:49:51.768Z,15.89
2022-08-07T06:52:35.520Z,16.06
2022-08-07T06:55:31.951Z,16.16
2022-08-07T06:58:12.051Z,16.26
2022-08-07T07:00:42.273Z,16.33
2022-08-07T07:03:13.959Z,16.40
2022-08-07T07:06:02.652Z,16.47
2022-08-07T07:08:33.410Z,16.50
2022-08-07T07:11:14.515Z,16.52
2022-08-07T07:13:58.061Z,16.70
2022-08-07T07:16:33.997Z,16.84
2022-08-07T07:19:54.349Z,16.94
2022-08-07T07:22:04.800Z,16.95
2022-08-07T07:24:56.916Z,16.87
2022-08-07T07:27:35.598Z,17.11
2022-08-07T07:30:32.794Z,17.18
2022-08-07T07:33:13.860Z,17.28
2022-08-07T07:36:04.134Z,17.37
2022-08-07T07:38:36.079Z,17.43
2022-08-07T07:41:09.112Z,17.53
2022-08-07T07:44:13.772Z,17.57
2022-08-07T07:46:36.913Z,17.69
2022-08-07T07:50:34.944Z,17.84
2022-08-07T07:52:07.524Z,17.88
2022-08-07T07:54:37.650Z,17.95
2022-08-07T07:57:09.159Z,18.00
2022-08-07T07:59:52.639Z,18.05
2022-08-07T08:02:34.015Z,18.13
2022-08-07T08:05:05.362Z,18.19
2022-08-07T08:07:59.566Z,18.16
2022-08-07T08:10:37.907Z,18.31
2022-08-07T08:13:10.649Z,18.43
2022-08-07T08:15:58.793Z,18.50
2022-08-07T08:18:37.294Z,18.55
2022-08-07T08:22:00.460Z,18.54
2022-08-07T08:24:45.625Z,18.64
2022-08-07T08:27:16.732Z,18.74
2022-08-07T08:29:54.411Z,18.84
2022-08-07T08:32:38.673Z,18.93
2022-08-07T08:35:09.737Z,19.11
2022-08-07T08:38:01.766Z,19.19
2022-08-07T08:40:34.160Z,19.25
2022-08-07T08:43:42.472Z,19.28
2022-08-07T08:46:39.213Z,19.18
2022-08-07T08:49:17.807Z,19.35
2022-08-07T08:52:12.746Z,19.47
2022-08-07T08:55:07.515Z,19.53
2022-08-07T08:57:52.443Z,19.57
2022-08-07T09:00:22.736Z,19.57
2022-08-07T09:03:08.025Z,19.59
2022-08-07T09:05:52.205Z,19.69
2022-08-07T09:08:47.682Z,19.79
2022-08-07T09:11:56.715Z,20.00
2022-08-07T09:16:23.930Z,20.16
2022-08-07T09:18:11.579Z,20.31
2022-08-07T09:21:00.303Z,20.47
2022-08-07T09:24:32.766Z,20.53
2022-08-07T09:27:11.879Z,20.58
2022-08-07T09:30:06.114Z,20.67
2022-08-07T09:33:05.225Z,20.72
2022-08-07T09:36:14.958Z,20.88
2022-08-07T09:39:11.329Z,20.91
2022-08-07T09:42:23.072Z,21.22
2022-08-07T09:47:55.666Z,21.25
2022-08-07T09:47:59.961Z,21.23
2022-08-07T09:50:44.961Z,21.42
2022-08-07T09:53:15.962Z,21.48
2022-08-07T09:56:04.234Z,21.65
2022-08-07T09:59:14.077Z,21.65
2022-08-07T10:01:55.132Z,21.58
2022-08-07T10:04:38.293Z,21.72
2022-08-07T10:07:31.869Z,21.76
2022-08-07T10:11:17.287Z,21.72
2022-08-07T10:14:01.294Z,21.55
2022-08-07T10:17:03.807Z,21.62
2022-08-07T10:20:31.847Z,21.95
2022-08-07T10:24:06.443Z,22.04
2022-08-07T10:26:53.110Z,22.29
2022-08-07T10:29:45.877Z,22.71
2022-08-07T10:33:03.093Z,23.06
2022-08-07T10:36:11.072Z,23.51
2022-08-07T10:38:49.940Z,24.04
2022-08-07T10:41:51.651Z,24.14
2022-08-07T10:44:33.882Z,23.61
2022-08-07T10:47:52.790Z,23.88
2022-08-07T10:50:26.405Z,24.09
2022-08-07T10:52:59.977Z,23.88
2022-08-07T10:55:53.838Z,24.38
2022-08-07T10:58:33.061Z,24.91
2022-08-07T11:01:51.963Z,25.02
2022-08-07T11:04:42.170Z,25.31
2022-08-07T11:07:59.423Z,25.17
2022-08-07T11:10:52.270Z,25.83
2022-08-07T11:14:43.877Z,26.30
2022-08-07T11:16:54.681Z,26.82
2022-08-07T11:19:37.228Z,26.83
2022-08-07T11:22:38.263Z,26.90
2022-08-07T11:25:19.768Z,26.03
2022-08-07T11:28:33.552Z,26.27
2022-08-07T11:31:17.742Z,26.58
2022-08-07T11:34:06.836Z,27.07
2022-08-07T11:36:46.365Z,27.34
2022-08-07T11:40:01.359Z,27.39
2022-08-07T11:42:43.875Z,27.20
2022-08-07T11:45:53.549Z,26.59
2022-08-07T11:49:28.627Z,27.67
2022-08-07T11:52:15.285Z,28.22
2022-08-07T11:54:57.741Z,27.91
2022-08-07T11:57:59.915Z,27.41
2022-08-07T12:00:35.867Z,27.38
2022-08-07T12:03:41.538Z,27.95
2022-08-07T12:06:37.638Z,28.40
2022-08-07T12:09:24.979Z,28.04
2022-08-07T12:12:09.277Z,28.75
2022-08-07T12:15:02.000Z,29.46
2022-08-07T12:17:59.386Z,29.02
2022-08-07T12:21:55.892Z,28.04
2022-08-07T12:24:40.302Z,26.80
2022-08-07T12:27:16.317Z,27.27
2022-08-07T12:29:54.958Z,28.35
2022-08-07T12:32:31.144Z,28.16
2022-08-07T12:35:02.531Z,27.03
2022-08-07T12:38:11.452Z,27.04
2022-08-07T12:40:47.540Z,27.87
2022-08-07T12:44:03.618Z,28.71
2022-08-07T12:46:09.757Z,29.82
2022-08-07T12:48:53.051Z,30.97
2022-08-07T12:51:33.233Z,30.14
2022-08-07T12:54:54.615Z,30.10
2022-08-07T12:57:29.869Z,29.91
2022-08-07T13:00:16.445Z,30.25
2022-08-07T13:03:06.750Z,29.83
2022-08-07T13:06:03.429Z,29.49
2022-08-07T13:09:12.669Z,29.94
2022-08-07T13:12:10.107Z,30.23
2022-08-07T13:14:50.966Z,30.65
2022-08-07T13:17:40.013Z,30.62
2022-08-07T13:20:30.961Z,31.38
2022-08-07T13:24:00.766Z,32.63
2022-08-07T13:26:20.138Z,32.69
2022-08-07T13:29:18.592Z,32.26
2022-08-07T13:31:59.796Z,31.18
2022-08-07T13:34:38.406Z,31.03
2022-08-07T13:37:20.040Z,31.40
2022-08-07T13:40:36.607Z,31.33
2022-08-07T13:43:12.342Z,32.08
2022-08-07T13:46:21.062Z,32.49
2022-08-07T13:48:35.721Z,33.49
2022-08-07T13:51:28.505Z,34.27
2022-08-07T13:54:03.682Z,33.14
2022-08-07T13:56:36.294Z,33.36
2022-08-07T13:59:33.270Z,33.76
2022-08-07T14:02:10.316Z,33.65
2022-08-07T14:04:47.517Z,32.63
2022-08-07T14:07:21.250Z,31.18
2022-08-07T14:10:12.189Z,30.36
2022-08-07T14:12:53.935Z,31.41
2022-08-07T14:15:40.164Z,33.17
2022-08-07T14:18:28.551Z,33.07
2022-08-07T14:21:20.607Z,32.23
2022-08-07T14:24:08.740Z,32.93
2022-08-07T14:26:50.416Z,33.31
2022-08-07T14:30:08.227Z,34.05
2022-08-07T14:32:14.037Z,34.20
2022-08-07T14:34:47.500Z,33.21
2022-08-07T14:37:32.885Z,32.42
2022-08-07T14:40:16.724Z,32.17
2022-08-07T14:43:57.574Z,33.11
2022-08-07T14:46:01.156Z,34.02
2022-08-07T14:48:34.434Z,34.48
2022-08-07T14:51:16.109Z,34.14
2022-08-07T14:54:08.938Z,34.53
2022-08-07T14:56:34.219Z,33.91
2022-08-07T14:59:13.471Z,33.74
2022-08-07T15:01:58.372Z,33.09
2022-08-07T15:04:28.910Z,33.98
2022-08-07T15:06:58.430Z,34.76
2022-08-07T15:15:21.374Z,33.80
2022-08-07T15:17:59.140Z,33.00
2022-08-07T15:20:54.668Z,33.28
2022-08-07T15:25:04.082Z,32.51
2022-08-07T15:26:28.803Z,32.82
2022-08-07T15:30:06.580Z,32.23
2022-08-07T15:32:01.983Z,31.31
2022-08-07T15:35:08.257Z,30.98
2022-08-07T15:40:34.609Z,32.20
2022-08-07T15:43:53.804Z,33.41
2022-08-07T15:46:37.183Z,32.44
2022-08-07T15:49:14.454Z,31.86
2022-08-07T15:54:34.640Z,31.79
2022-08-07T15:57:40.012Z,31.73
2022-08-07T16:00:04.475Z,32.07
2022-08-07T16:02:46.775Z,32.87
2022-08-07T16:05:20.543Z,33.01
2022-08-07T16:08:30.848Z,32.91
2022-08-07T16:10:48.730Z,32.51
2022-08-07T16:13:39.572Z,33.07
2022-08-07T16:16:47.756Z,33.25
2022-08-07T16:19:42.624Z,32.89
2022-08-07T16:22:55.782Z,31.64
2022-08-07T16:25:54.491Z,29.25
2022-08-07T16:30:08.697Z,28.80
2022-08-07T16:32:03.785Z,28.49
2022-08-07T16:35:00.122Z,27.97
2022-08-07T16:38:06.024Z,27.17
2022-08-07T16:40:57.117Z,26.53
2022-08-07T16:44:05.759Z,26.36
2022-08-07T16:47:08.785Z,26.05
2022-08-07T16:50:27.885Z,26.00
2022-08-07T16:53:09.879Z,25.84
2022-08-07T16:56:08.904Z,25.55
2022-08-07T16:59:11.429Z,25.50
2022-08-07T17:01:42.345Z,25.46
2022-08-07T17:04:57.605Z,25.25
2022-08-07T17:07:55.346Z,25.27
2022-08-07T17:10:33.150Z,25.18
2022-08-07T17:14:19.590Z,25.41
2022-08-07T17:16:56.021Z,25.03
2022-08-07T17:20:14.026Z,25.42
2022-08-07T17:23:11.417Z,25.61
2022-08-07T17:25:52.486Z,25.79
2022-08-07T17:28:31.508Z,25.87
2022-08-07T19:23:57.401Z,21.14
2022-08-07T19:26:23.468Z,21.12
2022-08-07T19:31:06.201Z,20.87
2022-08-07T19:32:18.681Z,20.80
2022-08-07T19:34:59.259Z,20.70
2022-08-07T19:37:55.653Z,20.71
2022-08-07T19:40:17.156Z,20.71
2022-08-07T19:43:49.161Z,20.66
2022-08-07T19:46:18.899Z,20.66
2022-08-07T19:49:00.265Z,20.76
2022-08-07T19:51:51.007Z,20.67
2022-08-07T19:54:31.939Z,20.61
2022-08-07T19:58:01.693Z,20.64
2022-08-07T20:00:08.771Z,20.61
2022-08-07T20:02:52.235Z,20.34
2022-08-07T20:05:27.805Z,20.20
2022-08-07T20:08:11.975Z,20.21
2022-08-07T20:10:55.044Z,20.07
2022-08-07T20:13:32.121Z,20.07
2022-08-07T20:16:03.498Z,19.99
2022-08-07T20:18:34.543Z,19.97
2022-08-07T20:21:14.461Z,19.82
2022-08-07T20:24:01.241Z,19.73
